sensor_id;sensor_type;location;lat;lon;timestamp;P1;durP1;ratioP1;P2;durP2;ratioP2
12482;SDS011;6306;47.134;15.344;2022-10-14T00:00:32;16.43;;;13.53;;
12482;SDS011;6306;47.134;15.344;2022-10-14T00:02:58;12.30;;;11.00;;
12482;SDS011;6306;47.134;15.344;2022-10-14T00:05:24;18.97;;;14.33;;
12482;SDS011;6306;47.134;15.344;2022-10-14T00:07:50;16.40;;;13.63;;
12482;SDS011;6306;47.134;15.344;2022-10-14T00:10:16;20.80;;;13.00;;
12482;SDS011;6306;47.134;15.344;2022-10-14T00:12:42;14.40;;;11.37;;
12482;SDS011;6306;47.134;15.344;2022-10-14T00:15:09;15.60;;;12.57;;
12482;SDS011;6306;47.134;15.344;2022-10-14T00:17:35;14.10;;;12.10;;
12482;SDS011;6306;47.134;15.344;2022-10-14T00:20:02;17.53;;;11.97;;
12482;SDS011;6306;47.134;15.344;2022-10-14T00:22:28;17.63;;;12.73;;
12482;SDS011;6306;47.134;15.344;2022-10-14T00:24:54;15.40;;;12.50;;
12482;SDS011;6306;47.134;15.344;2022-10-14T00:27:20;13.80;;;11.80;;
12482;SDS011;6306;47.134;15.344;2022-10-14T00:29:46;16.87;;;13.07;;
12482;SDS011;6306;47.134;15.344;2022-10-14T00:32:12;14.00;;;12.07;;
12482;SDS011;6306;47.134;15.344;2022-10-14T00:34:38;14.40;;;12.53;;
12482;SDS011;6306;47.134;15.344;2022-10-14T00:37:04;13.30;;;11.10;;
12482;SDS011;6306;47.134;15.344;2022-10-14T00:39:30;13.77;;;11.80;;
12482;SDS011;6306;47.134;15.344;2022-10-14T00:41:56;17.23;;;12.40;;
12482;SDS011;6306;47.134;15.344;2022-10-14T00:46:49;18.30;;;12.53;;
12482;SDS011;6306;47.134;15.344;2022-10-14T00:51:42;19.40;;;12.27;;
12482;SDS011;6306;47.134;15.344;2022-10-14T00:54:09;18.20;;;12.00;;
12482;SDS011;6306;47.134;15.344;2022-10-14T00:56:37;17.77;;;12.40;;
12482;SDS011;6306;47.134;15.344;2022-10-14T00:59:03;13.93;;;11.77;;
12482;SDS011;6306;47.134;15.344;2022-10-14T01:01:30;15.83;;;11.47;;
12482;SDS011;6306;47.134;15.344;2022-10-14T01:03:56;14.83;;;13.00;;
12482;SDS011;6306;47.134;15.344;2022-10-14T01:16:56;17.43;;;11.97;;
12482;SDS011;6306;47.134;15.344;2022-10-14T01:22:06;16.57;;;12.30;;
12482;SDS011;6306;47.134;15.344;2022-10-14T01:32:24;18.10;;;12.23;;
12482;SDS011;6306;47.134;15.344;2022-10-14T01:35:05;16.20;;;12.17;;
12482;SDS011;6306;47.134;15.344;2022-10-14T01:37:35;15.77;;;12.07;;
12482;SDS011;6306;47.134;15.344;2022-10-14T01:40:05;15.00;;;11.27;;
12482;SDS011;6306;47.134;15.344;2022-10-14T01:42:33;14.90;;;11.43;;
12482;SDS011;6306;47.134;15.344;2022-10-14T01:45:01;17.00;;;13.20;;
12482;SDS011;6306;47.134;15.344;2022-10-14T01:47:28;14.40;;;11.07;;
12482;SDS011;6306;47.134;15.344;2022-10-14T01:49:56;16.03;;;12.00;;
12482;SDS011;6306;47.134;15.344;2022-10-14T01:52:25;17.50;;;13.60;;
12482;SDS011;6306;47.134;15.344;2022-10-14T01:54:53;13.50;;;10.50;;
12482;SDS011;6306;47.134;15.344;2022-10-14T01:57:24;14.50;;;12.37;;
12482;SDS011;6306;47.134;15.344;2022-10-14T01:59:51;15.10;;;11.40;;
12482;SDS011;6306;47.134;15.344;2022-10-14T02:02:18;15.73;;;12.23;;
12482;SDS011;6306;47.134;15.344;2022-10-14T02:04:44;19.10;;;12.50;;
12482;SDS011;6306;47.134;15.344;2022-10-14T02:17:31;15.77;;;11.43;;
12482;SDS011;6306;47.134;15.344;2022-10-14T02:20:07;16.63;;;11.90;;
12482;SDS011;6306;47.134;15.344;2022-10-14T02:22:39;15.70;;;12.90;;
12482;SDS011;6306;47.134;15.344;2022-10-14T02:25:12;17.10;;;13.90;;
12482;SDS011;6306;47.134;15.344;2022-10-14T02:27:41;15.73;;;12.30;;
12482;SDS011;6306;47.134;15.344;2022-10-14T02:30:08;16.33;;;12.70;;
12482;SDS011;6306;47.134;15.344;2022-10-14T02:32:34;15.57;;;12.80;;
12482;SDS011;6306;47.134;15.344;2022-10-14T02:35:03;17.00;;;11.17;;
12482;SDS011;6306;47.134;15.344;2022-10-14T02:37:30;15.27;;;11.07;;
12482;SDS011;6306;47.134;15.344;2022-10-14T02:39:59;19.73;;;12.43;;
12482;SDS011;6306;47.134;15.344;2022-10-14T02:42:27;17.23;;;13.57;;
12482;SDS011;6306;47.134;15.344;2022-10-14T02:44:53;18.93;;;11.80;;
12482;SDS011;6306;47.134;15.344;2022-10-14T02:47:21;15.40;;;11.90;;
12482;SDS011;6306;47.134;15.344;2022-10-14T02:49:47;15.63;;;11.27;;
12482;SDS011;6306;47.134;15.344;2022-10-14T02:52:13;18.90;;;13.23;;
12482;SDS011;6306;47.134;15.344;2022-10-14T02:54:39;21.17;;;13.40;;
12482;SDS011;6306;47.134;15.344;2022-10-14T02:57:05;20.37;;;12.93;;
12482;SDS011;6306;47.134;15.344;2022-10-14T02:59:31;20.60;;;13.30;;
12482;SDS011;6306;47.134;15.344;2022-10-14T03:01:57;24.20;;;11.03;;
12482;SDS011;6306;47.134;15.344;2022-10-14T03:04:23;12.70;;;10.70;;
12482;SDS011;6306;47.134;15.344;2022-10-14T03:06:49;16.73;;;12.87;;
12482;SDS011;6306;47.134;15.344;2022-10-14T03:09:15;16.50;;;12.23;;
12482;SDS011;6306;47.134;15.344;2022-10-14T03:11:41;19.97;;;11.90;;
12482;SDS011;6306;47.134;15.344;2022-10-14T03:14:07;17.07;;;12.57;;
12482;SDS011;6306;47.134;15.344;2022-10-14T03:16:33;13.13;;;11.73;;
12482;SDS011;6306;47.134;15.344;2022-10-14T03:18:59;16.90;;;12.40;;
12482;SDS011;6306;47.134;15.344;2022-10-14T03:21:25;17.70;;;12.17;;
12482;SDS011;6306;47.134;15.344;2022-10-14T03:23:51;24.40;;;14.97;;
12482;SDS011;6306;47.134;15.344;2022-10-14T03:26:17;17.90;;;12.80;;
12482;SDS011;6306;47.134;15.344;2022-10-14T03:28:44;17.47;;;13.27;;
12482;SDS011;6306;47.134;15.344;2022-10-14T03:31:10;16.13;;;12.60;;
12482;SDS011;6306;47.134;15.344;2022-10-14T03:33:36;16.40;;;11.47;;
12482;SDS011;6306;47.134;15.344;2022-10-14T03:36:02;16.27;;;12.47;;
12482;SDS011;6306;47.134;15.344;2022-10-14T03:38:28;15.30;;;11.67;;
12482;SDS011;6306;47.134;15.344;2022-10-14T03:40:54;16.83;;;12.60;;
12482;SDS011;6306;47.134;15.344;2022-10-14T03:43:20;21.57;;;13.87;;
12482;SDS011;6306;47.134;15.344;2022-10-14T03:45:46;17.20;;;12.63;;
12482;SDS011;6306;47.134;15.344;2022-10-14T03:48:12;17.97;;;13.33;;
12482;SDS011;6306;47.134;15.344;2022-10-14T03:50:38;19.77;;;13.43;;
12482;SDS011;6306;47.134;15.344;2022-10-14T03:53:04;16.53;;;12.63;;
12482;SDS011;6306;47.134;15.344;2022-10-14T03:55:30;16.60;;;11.87;;
12482;SDS011;6306;47.134;15.344;2022-10-14T03:57:56;17.20;;;10.67;;
12482;SDS011;6306;47.134;15.344;2022-10-14T04:00:22;18.37;;;13.13;;
12482;SDS011;6306;47.134;15.344;2022-10-14T04:02:48;14.10;;;11.70;;
12482;SDS011;6306;47.134;15.344;2022-10-14T04:05:14;16.50;;;12.60;;
12482;SDS011;6306;47.134;15.344;2022-10-14T04:07:40;12.90;;;11.20;;
12482;SDS011;6306;47.134;15.344;2022-10-14T04:10:06;16.70;;;11.40;;
12482;SDS011;6306;47.134;15.344;2022-10-14T04:12:33;17.90;;;13.50;;
12482;SDS011;6306;47.134;15.344;2022-10-14T04:14:59;18.50;;;12.20;;
12482;SDS011;6306;47.134;15.344;2022-10-14T04:17:25;16.50;;;12.00;;
12482;SDS011;6306;47.134;15.344;2022-10-14T04:19:51;17.17;;;12.07;;
12482;SDS011;6306;47.134;15.344;2022-10-14T04:22:18;18.13;;;11.53;;
12482;SDS011;6306;47.134;15.344;2022-10-14T04:24:44;16.47;;;13.43;;
12482;SDS011;6306;47.134;15.344;2022-10-14T04:27:10;14.57;;;11.90;;
12482;SDS011;6306;47.134;15.344;2022-10-14T04:29:36;22.43;;;13.30;;
12482;SDS011;6306;47.134;15.344;2022-10-14T04:32:02;16.67;;;13.97;;
12482;SDS011;6306;47.134;15.344;2022-10-14T04:34:28;21.13;;;13.70;;
12482;SDS011;6306;47.134;15.344;2022-10-14T04:36:54;18.77;;;14.47;;
12482;SDS011;6306;47.134;15.344;2022-10-14T04:39:20;15.67;;;12.20;;
12482;SDS011;6306;47.134;15.344;2022-10-14T04:41:46;19.93;;;12.53;;
12482;SDS011;6306;47.134;15.344;2022-10-14T04:44:12;21.87;;;13.20;;
12482;SDS011;6306;47.134;15.344;2022-10-14T04:46:38;14.90;;;11.87;;
12482;SDS011;6306;47.134;15.344;2022-10-14T04:49:04;15.07;;;11.83;;
12482;SDS011;6306;47.134;15.344;2022-10-14T04:51:30;15.67;;;12.77;;
12482;SDS011;6306;47.134;15.344;2022-10-14T04:53:56;19.97;;;14.40;;
12482;SDS011;6306;47.134;15.344;2022-10-14T04:56:22;19.70;;;13.10;;
12482;SDS011;6306;47.134;15.344;2022-10-14T04:58:48;23.33;;;13.33;;
12482;SDS011;6306;47.134;15.344;2022-10-14T05:01:14;15.97;;;11.53;;
12482;SDS011;6306;47.134;15.344;2022-10-14T05:03:42;19.97;;;12.77;;
12482;SDS011;6306;47.134;15.344;2022-10-14T05:06:08;19.00;;;13.00;;
12482;SDS011;6306;47.134;15.344;2022-10-14T05:08:34;17.17;;;11.53;;
12482;SDS011;6306;47.134;15.344;2022-10-14T05:11:00;21.03;;;12.83;;
12482;SDS011;6306;47.134;15.344;2022-10-14T05:13:27;18.50;;;12.80;;
12482;SDS011;6306;47.134;15.344;2022-10-14T05:15:53;18.83;;;12.73;;
12482;SDS011;6306;47.134;15.344;2022-10-14T05:18:19;20.10;;;13.00;;
12482;SDS011;6306;47.134;15.344;2022-10-14T05:20:46;15.77;;;12.10;;
12482;SDS011;6306;47.134;15.344;2022-10-14T05:23:12;20.40;;;12.00;;
12482;SDS011;6306;47.134;15.344;2022-10-14T05:25:38;20.10;;;12.50;;
12482;SDS011;6306;47.134;15.344;2022-10-14T05:28:05;16.47;;;11.50;;
12482;SDS011;6306;47.134;15.344;2022-10-14T05:30:31;27.07;;;12.43;;
12482;SDS011;6306;47.134;15.344;2022-10-14T05:32:57;18.97;;;13.50;;
12482;SDS011;6306;47.134;15.344;2022-10-14T05:35:23;20.07;;;13.53;;
12482;SDS011;6306;47.134;15.344;2022-10-14T05:37:53;18.40;;;13.67;;
12482;SDS011;6306;47.134;15.344;2022-10-14T05:40:19;22.80;;;13.33;;
12482;SDS011;6306;47.134;15.344;2022-10-14T05:42:45;22.60;;;13.00;;
12482;SDS011;6306;47.134;15.344;2022-10-14T05:45:11;25.63;;;14.50;;
12482;SDS011;6306;47.134;15.344;2022-10-14T05:47:37;20.40;;;12.90;;
12482;SDS011;6306;47.134;15.344;2022-10-14T05:50:03;18.30;;;11.63;;
12482;SDS011;6306;47.134;15.344;2022-10-14T05:52:30;31.43;;;13.20;;
12482;SDS011;6306;47.134;15.344;2022-10-14T05:54:56;22.00;;;11.20;;
12482;SDS011;6306;47.134;15.344;2022-10-14T05:57:23;21.33;;;12.10;;
12482;SDS011;6306;47.134;15.344;2022-10-14T05:59:49;28.60;;;13.53;;
12482;SDS011;6306;47.134;15.344;2022-10-14T06:02:15;32.50;;;13.00;;
12482;SDS011;6306;47.134;15.344;2022-10-14T06:04:41;20.93;;;13.20;;
12482;SDS011;6306;47.134;15.344;2022-10-14T06:07:07;20.03;;;13.97;;
12482;SDS011;6306;47.134;15.344;2022-10-14T06:09:34;25.30;;;15.17;;
12482;SDS011;6306;47.134;15.344;2022-10-14T06:12:01;16.53;;;13.97;;
12482;SDS011;6306;47.134;15.344;2022-10-14T06:14:27;21.53;;;14.80;;
12482;SDS011;6306;47.134;15.344;2022-10-14T06:16:53;17.97;;;14.20;;
12482;SDS011;6306;47.134;15.344;2022-10-14T06:19:19;24.43;;;14.97;;
12482;SDS011;6306;47.134;15.344;2022-10-14T06:21:46;20.57;;;14.67;;
12482;SDS011;6306;47.134;15.344;2022-10-14T06:24:12;22.53;;;13.20;;
12482;SDS011;6306;47.134;15.344;2022-10-14T06:26:38;17.60;;;14.00;;
12482;SDS011;6306;47.134;15.344;2022-10-14T06:29:05;21.30;;;14.60;;
12482;SDS011;6306;47.134;15.344;2022-10-14T06:31:31;27.00;;;14.67;;
12482;SDS011;6306;47.134;15.344;2022-10-14T06:33:57;19.50;;;14.77;;
12482;SDS011;6306;47.134;15.344;2022-10-14T06:36:23;25.67;;;16.30;;
12482;SDS011;6306;47.134;15.344;2022-10-14T06:38:49;20.70;;;15.37;;
12482;SDS011;6306;47.134;15.344;2022-10-14T06:41:15;19.90;;;14.40;;
12482;SDS011;6306;47.134;15.344;2022-10-14T06:43:41;18.30;;;14.00;;
12482;SDS011;6306;47.134;15.344;2022-10-14T06:46:07;29.80;;;16.67;;
12482;SDS011;6306;47.134;15.344;2022-10-14T06:48:33;19.97;;;15.77;;
12482;SDS011;6306;47.134;15.344;2022-10-14T06:50:59;20.43;;;13.57;;
12482;SDS011;6306;47.134;15.344;2022-10-14T06:53:26;23.97;;;16.47;;
12482;SDS011;6306;47.134;15.344;2022-10-14T06:55:59;23.83;;;15.07;;
12482;SDS011;6306;47.134;15.344;2022-10-14T06:58:25;18.83;;;14.10;;
12482;SDS011;6306;47.134;15.344;2022-10-14T07:00:52;24.60;;;17.10;;
12482;SDS011;6306;47.134;15.344;2022-10-14T07:03:19;21.63;;;15.40;;
12482;SDS011;6306;47.134;15.344;2022-10-14T07:05:45;20.53;;;15.20;;
12482;SDS011;6306;47.134;15.344;2022-10-14T07:08:11;25.10;;;14.83;;
12482;SDS011;6306;47.134;15.344;2022-10-14T07:10:37;19.90;;;14.87;;
12482;SDS011;6306;47.134;15.344;2022-10-14T07:13:03;26.43;;;17.03;;
12482;SDS011;6306;47.134;15.344;2022-10-14T07:15:29;22.77;;;14.83;;
12482;SDS011;6306;47.134;15.344;2022-10-14T07:17:55;18.23;;;15.17;;
12482;SDS011;6306;47.134;15.344;2022-10-14T07:20:21;29.60;;;16.43;;
12482;SDS011;6306;47.134;15.344;2022-10-14T07:22:47;23.90;;;16.70;;
12482;SDS011;6306;47.134;15.344;2022-10-14T07:25:13;28.90;;;16.20;;
12482;SDS011;6306;47.134;15.344;2022-10-14T07:27:39;21.33;;;16.00;;
12482;SDS011;6306;47.134;15.344;2022-10-14T07:30:05;25.40;;;17.90;;
12482;SDS011;6306;47.134;15.344;2022-10-14T07:32:33;19.87;;;16.03;;
12482;SDS011;6306;47.134;15.344;2022-10-14T07:35:00;30.23;;;17.47;;
12482;SDS011;6306;47.134;15.344;2022-10-14T07:37:26;20.20;;;15.23;;
12482;SDS011;6306;47.134;15.344;2022-10-14T07:39:53;17.80;;;13.93;;
12482;SDS011;6306;47.134;15.344;2022-10-14T07:42:19;21.70;;;17.40;;
12482;SDS011;6306;47.134;15.344;2022-10-14T07:44:45;24.93;;;14.90;;
12482;SDS011;6306;47.134;15.344;2022-10-14T07:47:11;23.47;;;15.20;;
12482;SDS011;6306;47.134;15.344;2022-10-14T07:49:37;20.03;;;15.83;;
12482;SDS011;6306;47.134;15.344;2022-10-14T07:52:03;25.50;;;16.57;;
12482;SDS011;6306;47.134;15.344;2022-10-14T07:54:29;21.63;;;16.30;;
12482;SDS011;6306;47.134;15.344;2022-10-14T07:56:57;21.33;;;14.70;;
12482;SDS011;6306;47.134;15.344;2022-10-14T07:59:23;24.80;;;18.27;;
12482;SDS011;6306;47.134;15.344;2022-10-14T08:01:49;19.30;;;14.70;;
12482;SDS011;6306;47.134;15.344;2022-10-14T08:04:16;20.00;;;15.30;;
12482;SDS011;6306;47.134;15.344;2022-10-14T08:06:42;20.20;;;13.73;;
12482;SDS011;6306;47.134;15.344;2022-10-14T08:09:09;19.20;;;15.57;;
12482;SDS011;6306;47.134;15.344;2022-10-14T08:11:35;32.03;;;15.60;;
12482;SDS011;6306;47.134;15.344;2022-10-14T08:14:01;17.67;;;13.00;;
12482;SDS011;6306;47.134;15.344;2022-10-14T08:16:29;16.03;;;14.37;;
12482;SDS011;6306;47.134;15.344;2022-10-14T08:18:56;17.37;;;13.53;;
12482;SDS011;6306;47.134;15.344;2022-10-14T08:21:23;20.57;;;13.87;;
12482;SDS011;6306;47.134;15.344;2022-10-14T08:23:49;24.97;;;14.70;;
12482;SDS011;6306;47.134;15.344;2022-10-14T08:28:41;18.37;;;14.47;;
12482;SDS011;6306;47.134;15.344;2022-10-14T08:31:07;23.23;;;15.90;;
12482;SDS011;6306;47.134;15.344;2022-10-14T08:33:33;19.07;;;14.13;;
12482;SDS011;6306;47.134;15.344;2022-10-14T08:35:59;21.83;;;15.30;;
12482;SDS011;6306;47.134;15.344;2022-10-14T08:38:25;20.17;;;13.90;;
12482;SDS011;6306;47.134;15.344;2022-10-14T08:41:09;18.80;;;12.13;;
12482;SDS011;6306;47.134;15.344;2022-10-14T08:46:29;20.63;;;14.07;;
12482;SDS011;6306;47.134;15.344;2022-10-14T08:49:02;19.20;;;13.40;;
12482;SDS011;6306;47.134;15.344;2022-10-14T08:51:31;21.30;;;14.53;;
12482;SDS011;6306;47.134;15.344;2022-10-14T08:53:58;20.47;;;14.40;;
12482;SDS011;6306;47.134;15.344;2022-10-14T08:56:30;20.60;;;16.13;;
12482;SDS011;6306;47.134;15.344;2022-10-14T08:58:57;25.27;;;14.97;;
12482;SDS011;6306;47.134;15.344;2022-10-14T09:01:27;23.13;;;16.73;;
12482;SDS011;6306;47.134;15.344;2022-10-14T09:03:57;20.83;;;16.40;;
12482;SDS011;6306;47.134;15.344;2022-10-14T09:06:31;22.77;;;15.13;;
12482;SDS011;6306;47.134;15.344;2022-10-14T09:08:59;23.53;;;17.03;;
12482;SDS011;6306;47.134;15.344;2022-10-14T09:11:29;23.60;;;16.73;;
12482;SDS011;6306;47.134;15.344;2022-10-14T09:13:58;22.37;;;16.70;;
12482;SDS011;6306;47.134;15.344;2022-10-14T09:16:26;24.40;;;17.50;;
12482;SDS011;6306;47.134;15.344;2022-10-14T09:18:55;27.63;;;18.33;;
12482;SDS011;6306;47.134;15.344;2022-10-14T09:21:35;21.87;;;18.10;;
12482;SDS011;6306;47.134;15.344;2022-10-14T09:26:29;26.50;;;18.80;;
12482;SDS011;6306;47.134;15.344;2022-10-14T09:29:01;28.30;;;19.00;;
12482;SDS011;6306;47.134;15.344;2022-10-14T09:31:27;30.20;;;18.83;;
12482;SDS011;6306;47.134;15.344;2022-10-14T09:33:53;28.90;;;20.67;;
12482;SDS011;6306;47.134;15.344;2022-10-14T09:36:20;25.70;;;19.53;;
12482;SDS011;6306;47.134;15.344;2022-10-14T09:38:49;45.37;;;20.93;;
12482;SDS011;6306;47.134;15.344;2022-10-14T09:41:16;26.80;;;18.80;;
12482;SDS011;6306;47.134;15.344;2022-10-14T09:46:28;31.03;;;20.17;;
12482;SDS011;6306;47.134;15.344;2022-10-14T09:48:54;32.13;;;22.70;;
12482;SDS011;6306;47.134;15.344;2022-10-14T09:51:22;28.10;;;20.77;;
12482;SDS011;6306;47.134;15.344;2022-10-14T09:53:50;26.10;;;20.27;;
12482;SDS011;6306;47.134;15.344;2022-10-14T09:56:26;28.33;;;20.07;;
12482;SDS011;6306;47.134;15.344;2022-10-14T09:58:52;25.50;;;18.20;;
12482;SDS011;6306;47.134;15.344;2022-10-14T10:01:28;23.60;;;19.90;;
12482;SDS011;6306;47.134;15.344;2022-10-14T10:03:54;28.03;;;19.53;;
12482;SDS011;6306;47.134;15.344;2022-10-14T10:06:22;20.67;;;17.37;;
12482;SDS011;6306;47.134;15.344;2022-10-14T10:11:31;24.70;;;20.87;;
12482;SDS011;6306;47.134;15.344;2022-10-14T10:14:15;25.23;;;18.13;;
12482;SDS011;6306;47.134;15.344;2022-10-14T10:16:42;28.30;;;19.17;;
12482;SDS011;6306;47.134;15.344;2022-10-14T10:21:53;28.20;;;16.90;;
12482;SDS011;6306;47.134;15.344;2022-10-14T10:24:21;27.53;;;19.97;;
12482;SDS011;6306;47.134;15.344;2022-10-14T10:26:48;23.93;;;18.30;;
12482;SDS011;6306;47.134;15.344;2022-10-14T10:29:22;25.93;;;19.17;;
12482;SDS011;6306;47.134;15.344;2022-10-14T10:31:50;24.60;;;18.80;;
12482;SDS011;6306;47.134;15.344;2022-10-14T10:42:09;28.87;;;20.73;;
12482;SDS011;6306;47.134;15.344;2022-10-14T11:00:13;26.03;;;21.53;;
12482;SDS011;6306;47.134;15.344;2022-10-14T11:02:46;25.60;;;20.70;;
12482;SDS011;6306;47.134;15.344;2022-10-14T11:05:26;27.87;;;23.20;;
12482;SDS011;6306;47.134;15.344;2022-10-14T11:07:58;26.97;;;20.90;;
12482;SDS011;6306;47.134;15.344;2022-10-14T11:10:56;28.03;;;21.67;;
12482;SDS011;6306;47.134;15.344;2022-10-14T11:13:54;27.07;;;19.27;;
12482;SDS011;6306;47.134;15.344;2022-10-14T11:23:59;30.30;;;21.20;;
12482;SDS011;6306;47.134;15.344;2022-10-14T11:32:22;27.33;;;20.53;;
12482;SDS011;6306;47.134;15.344;2022-10-14T11:42:25;27.67;;;20.80;;
12482;SDS011;6306;47.134;15.344;2022-10-14T11:45:37;30.90;;;21.30;;
12482;SDS011;6306;47.134;15.344;2022-10-14T11:47:42;35.10;;;23.40;;
12482;SDS011;6306;47.134;15.344;2022-10-14T11:50:12;32.17;;;22.57;;
12482;SDS011;6306;47.134;15.344;2022-10-14T11:55:16;31.90;;;24.87;;
12482;SDS011;6306;47.134;15.344;2022-10-14T11:58:02;34.67;;;24.90;;
12482;SDS011;6306;47.134;15.344;2022-10-14T12:03:18;25.83;;;20.53;;
12482;SDS011;6306;47.134;15.344;2022-10-14T12:05:48;30.00;;;21.83;;
12482;SDS011;6306;47.134;15.344;2022-10-14T12:10:54;37.40;;;23.73;;
12482;SDS011;6306;47.134;15.344;2022-10-14T12:13:33;24.67;;;20.33;;
12482;SDS011;6306;47.134;15.344;2022-10-14T12:16:01;29.10;;;21.80;;
12482;SDS011;6306;47.134;15.344;2022-10-14T12:18:29;26.77;;;19.47;;
12482;SDS011;6306;47.134;15.344;2022-10-14T12:21:03;32.03;;;21.70;;
12482;SDS011;6306;47.134;15.344;2022-10-14T12:23:34;28.10;;;22.07;;
12482;SDS011;6306;47.134;15.344;2022-10-14T12:26:09;31.20;;;22.80;;
12482;SDS011;6306;47.134;15.344;2022-10-14T12:28:35;30.40;;;24.43;;
12482;SDS011;6306;47.134;15.344;2022-10-14T12:36:33;34.17;;;23.27;;
12482;SDS011;6306;47.134;15.344;2022-10-14T12:44:39;30.83;;;23.70;;
12482;SDS011;6306;47.134;15.344;2022-10-14T12:47:06;28.60;;;21.37;;
12482;SDS011;6306;47.134;15.344;2022-10-14T12:49:40;27.90;;;23.47;;
12482;SDS011;6306;47.134;15.344;2022-10-14T12:52:11;30.33;;;24.03;;
12482;SDS011;6306;47.134;15.344;2022-10-14T12:54:46;25.20;;;19.40;;
12482;SDS011;6306;47.134;15.344;2022-10-14T12:57:28;34.80;;;24.43;;
12482;SDS011;6306;47.134;15.344;2022-10-14T12:59:59;29.40;;;23.87;;
12482;SDS011;6306;47.134;15.344;2022-10-14T13:02:32;31.83;;;22.77;;
12482;SDS011;6306;47.134;15.344;2022-10-14T13:05:06;31.27;;;25.43;;
12482;SDS011;6306;47.134;15.344;2022-10-14T13:07:45;29.03;;;22.80;;
12482;SDS011;6306;47.134;15.344;2022-10-14T13:12:57;31.03;;;23.17;;
12482;SDS011;6306;47.134;15.344;2022-10-14T13:16:06;36.53;;;25.70;;
12482;SDS011;6306;47.134;15.344;2022-10-14T13:18:33;37.70;;;25.73;;
12482;SDS011;6306;47.134;15.344;2022-10-14T13:20:59;35.70;;;27.20;;
12482;SDS011;6306;47.134;15.344;2022-10-14T13:23:44;36.67;;;27.63;;
12482;SDS011;6306;47.134;15.344;2022-10-14T13:39:45;38.60;;;26.53;;
12482;SDS011;6306;47.134;15.344;2022-10-14T13:42:17;28.40;;;22.93;;
12482;SDS011;6306;47.134;15.344;2022-10-14T13:44:45;37.50;;;28.23;;
12482;SDS011;6306;47.134;15.344;2022-10-14T13:47:12;39.47;;;28.73;;
12482;SDS011;6306;47.134;15.344;2022-10-14T13:49:39;33.43;;;25.27;;
12482;SDS011;6306;47.134;15.344;2022-10-14T13:52:05;34.37;;;25.80;;
12482;SDS011;6306;47.134;15.344;2022-10-14T13:54:34;36.80;;;26.80;;
12482;SDS011;6306;47.134;15.344;2022-10-14T13:57:11;34.67;;;25.20;;
12482;SDS011;6306;47.134;15.344;2022-10-14T13:59:47;35.90;;;27.23;;
12482;SDS011;6306;47.134;15.344;2022-10-14T14:02:19;37.43;;;25.73;;
12482;SDS011;6306;47.134;15.344;2022-10-14T14:04:49;36.37;;;25.63;;
12482;SDS011;6306;47.134;15.344;2022-10-14T14:07:18;33.33;;;28.03;;
12482;SDS011;6306;47.134;15.344;2022-10-14T14:09:53;36.37;;;26.83;;
12482;SDS011;6306;47.134;15.344;2022-10-14T14:12:20;35.80;;;25.93;;
12482;SDS011;6306;47.134;15.344;2022-10-14T14:14:46;36.70;;;28.37;;
12482;SDS011;6306;47.134;15.344;2022-10-14T14:17:22;38.10;;;28.50;;
12482;SDS011;6306;47.134;15.344;2022-10-14T14:19:49;34.17;;;27.57;;
12482;SDS011;6306;47.134;15.344;2022-10-14T14:22:21;34.70;;;27.30;;
12482;SDS011;6306;47.134;15.344;2022-10-14T14:24:48;42.20;;;29.30;;
12482;SDS011;6306;47.134;15.344;2022-10-14T14:27:16;40.93;;;27.73;;
12482;SDS011;6306;47.134;15.344;2022-10-14T14:29:43;37.10;;;28.00;;
12482;SDS011;6306;47.134;15.344;2022-10-14T14:32:16;34.73;;;29.10;;
12482;SDS011;6306;47.134;15.344;2022-10-14T14:34:43;45.73;;;32.03;;
12482;SDS011;6306;47.134;15.344;2022-10-14T14:37:14;39.17;;;29.10;;
12482;SDS011;6306;47.134;15.344;2022-10-14T14:39:41;35.83;;;28.83;;
12482;SDS011;6306;47.134;15.344;2022-10-14T14:42:07;40.30;;;27.77;;
12482;SDS011;6306;47.134;15.344;2022-10-14T14:44:33;40.30;;;30.63;;
12482;SDS011;6306;47.134;15.344;2022-10-14T14:47:00;39.37;;;31.97;;
12482;SDS011;6306;47.134;15.344;2022-10-14T14:49:28;36.57;;;28.77;;
12482;SDS011;6306;47.134;15.344;2022-10-14T14:51:54;39.67;;;28.67;;
12482;SDS011;6306;47.134;15.344;2022-10-14T14:54:21;41.87;;;30.00;;
12482;SDS011;6306;47.134;15.344;2022-10-14T14:56:48;37.27;;;28.50;;
12482;SDS011;6306;47.134;15.344;2022-10-14T15:01:41;38.30;;;28.73;;
12482;SDS011;6306;47.134;15.344;2022-10-14T15:04:14;43.13;;;29.00;;
12482;SDS011;6306;47.134;15.344;2022-10-14T15:06:41;41.00;;;29.30;;
12482;SDS011;6306;47.134;15.344;2022-10-14T15:09:11;39.57;;;28.37;;
12482;SDS011;6306;47.134;15.344;2022-10-14T15:11:47;38.67;;;29.33;;
12482;SDS011;6306;47.134;15.344;2022-10-14T15:14:38;42.87;;;30.63;;
12482;SDS011;6306;47.134;15.344;2022-10-14T15:17:26;40.40;;;29.60;;
12482;SDS011;6306;47.134;15.344;2022-10-14T15:19:53;45.90;;;30.40;;
12482;SDS011;6306;47.134;15.344;2022-10-14T15:22:20;42.10;;;28.70;;
12482;SDS011;6306;47.134;15.344;2022-10-14T15:24:59;39.33;;;30.40;;
12482;SDS011;6306;47.134;15.344;2022-10-14T15:27:29;41.20;;;29.97;;
12482;SDS011;6306;47.134;15.344;2022-10-14T15:32:40;38.93;;;28.37;;
12482;SDS011;6306;47.134;15.344;2022-10-14T15:35:06;37.53;;;29.27;;
12482;SDS011;6306;47.134;15.344;2022-10-14T15:37:33;48.40;;;31.40;;
12482;SDS011;6306;47.134;15.344;2022-10-14T15:42:54;41.57;;;30.13;;
12482;SDS011;6306;47.134;15.344;2022-10-14T15:45:20;40.37;;;29.73;;
12482;SDS011;6306;47.134;15.344;2022-10-14T15:47:51;42.20;;;31.83;;
12482;SDS011;6306;47.134;15.344;2022-10-14T15:50:19;45.97;;;34.63;;
12482;SDS011;6306;47.134;15.344;2022-10-14T15:52:45;46.37;;;29.73;;
12482;SDS011;6306;47.134;15.344;2022-10-14T15:55:21;43.83;;;31.50;;
12482;SDS011;6306;47.134;15.344;2022-10-14T15:57:48;39.27;;;30.23;;
12482;SDS011;6306;47.134;15.344;2022-10-14T16:00:23;45.37;;;31.57;;
12482;SDS011;6306;47.134;15.344;2022-10-14T16:02:50;39.00;;;27.90;;
12482;SDS011;6306;47.134;15.344;2022-10-14T16:05:18;40.40;;;28.53;;
12482;SDS011;6306;47.134;15.344;2022-10-14T16:07:44;44.90;;;26.97;;
12482;SDS011;6306;47.134;15.344;2022-10-14T16:10:12;36.83;;;28.23;;
12482;SDS011;6306;47.134;15.344;2022-10-14T16:12:39;41.87;;;26.10;;
12482;SDS011;6306;47.134;15.344;2022-10-14T16:15:29;34.93;;;25.57;;
12482;SDS011;6306;47.134;15.344;2022-10-14T16:17:52;40.83;;;26.20;;
12482;SDS011;6306;47.134;15.344;2022-10-14T16:20:18;35.97;;;27.47;;
12482;SDS011;6306;47.134;15.344;2022-10-14T16:22:44;41.10;;;27.23;;
12482;SDS011;6306;47.134;15.344;2022-10-14T16:25:13;40.53;;;28.53;;
12482;SDS011;6306;47.134;15.344;2022-10-14T16:27:40;42.60;;;28.63;;
12482;SDS011;6306;47.134;15.344;2022-10-14T16:30:07;40.37;;;31.07;;
12482;SDS011;6306;47.134;15.344;2022-10-14T16:32:35;37.10;;;27.77;;
12482;SDS011;6306;47.134;15.344;2022-10-14T16:35:01;37.30;;;27.73;;
12482;SDS011;6306;47.134;15.344;2022-10-14T16:37:27;46.40;;;31.13;;
12482;SDS011;6306;47.134;15.344;2022-10-14T16:39:53;38.13;;;28.13;;
12482;SDS011;6306;47.134;15.344;2022-10-14T16:42:19;38.60;;;26.73;;
12482;SDS011;6306;47.134;15.344;2022-10-14T16:44:45;38.03;;;27.50;;
12482;SDS011;6306;47.134;15.344;2022-10-14T16:47:11;35.33;;;26.67;;